sensor_id;sensor_type;location;lat;lon;timestamp;P1;P2;P0
84428;PMS7003;74637;52.170;21.034;2024-01-27T00:00:13;21.50;13.00;9.50
84428;PMS7003;74637;52.170;21.034;2024-01-27T00:03:00;10.00;8.00;7.00
84428;PMS7003;74637;52.170;21.034;2024-01-27T00:05:27;11.00;9.00;6.00
84428;PMS7003;74637;52.170;21.034;2024-01-27T00:07:54;11.00;7.00;3.00
84428;PMS7003;74637;52.170;21.034;2024-01-27T00:10:20;6.00;6.00;4.00
84428;PMS7003;74637;52.170;21.034;2024-01-27T00:12:47;8.00;5.00;3.67
84428;PMS7003;74637;52.170;21.034;2024-01-27T00:15:14;5.33;5.00;3.00
84428;PMS7003;74637;52.170;21.034;2024-01-27T00:17:41;5.00;3.00;2.00
84428;PMS7003;74637;52.170;21.034;2024-01-27T00:20:07;5.00;3.00;2.00
84428;PMS7003;74637;52.170;21.034;2024-01-27T00:22:34;2.00;2.00;1.00
84428;PMS7003;74637;52.170;21.034;2024-01-27T00:25:01;2.50;2.50;1.00
84428;PMS7003;74637;52.170;21.034;2024-01-27T00:27:27;1.00;1.00;1.00
84428;PMS7003;74637;52.170;21.034;2024-01-27T00:29:54;1.25;1.00;0.00
84428;PMS7003;74637;52.170;21.034;2024-01-27T00:32:21;2.00;1.00;0.00
84428;PMS7003;74637;52.170;21.034;2024-01-27T00:34:47;1.00;0.00;0.00
84428;PMS7003;74637;52.170;21.034;2024-01-27T00:37:14;0.00;0.00;0.00
84428;PMS7003;74637;52.170;21.034;2024-01-27T00:39:40;3.00;1.00;0.00
84428;PMS7003;74637;52.170;21.034;2024-01-27T00:42:07;1.00;1.00;0.00
84428;PMS7003;74637;52.170;21.034;2024-01-27T00:44:34;1.00;1.00;0.50
84428;PMS7003;74637;52.170;21.034;2024-01-27T00:47:01;1.00;0.00;0.00
84428;PMS7003;74637;52.170;21.034;2024-01-27T00:49:30;2.00;1.00;0.00
84428;PMS7003;74637;52.170;21.034;2024-01-27T00:51:56;1.00;0.00;0.00
84428;PMS7003;74637;52.170;21.034;2024-01-27T00:54:23;3.00;0.00;0.00
84428;PMS7003;74637;52.170;21.034;2024-01-27T00:56:52;2.00;0.00;0.00
84428;PMS7003;74637;52.170;21.034;2024-01-27T00:59:19;0.00;0.00;0.00
84428;PMS7003;74637;52.170;21.034;2024-01-27T01:01:45;0.00;0.00;0.00
84428;PMS7003;74637;52.170;21.034;2024-01-27T01:04:12;2.33;1.00;0.33
84428;PMS7003;74637;52.170;21.034;2024-01-27T01:06:39;0.00;0.00;0.00
84428;PMS7003;74637;52.170;21.034;2024-01-27T01:09:06;1.00;1.00;1.00
84428;PMS7003;74637;52.170;21.034;2024-01-27T01:11:33;2.00;1.00;0.50
84428;PMS7003;74637;52.170;21.034;2024-01-27T01:14:00;3.00;1.00;0.00
84428;PMS7003;74637;52.170;21.034;2024-01-27T01:16:26;1.00;1.00;1.00
84428;PMS7003;74637;52.170;21.034;2024-01-27T01:18:53;0.00;0.00;0.00
84428;PMS7003;74637;52.170;21.034;2024-01-27T01:21:19;2.00;1.00;0.00
84428;PMS7003;74637;52.170;21.034;2024-01-27T01:23:46;1.00;0.00;0.00
84428;PMS7003;74637;52.170;21.034;2024-01-27T01:26:13;2.00;0.00;0.00
84428;PMS7003;74637;52.170;21.034;2024-01-27T01:28:40;2.00;1.00;0.00
84428;PMS7003;74637;52.170;21.034;2024-01-27T01:31:06;2.00;0.50;0.50
84428;PMS7003;74637;52.170;21.034;2024-01-27T01:33:34;5.00;1.00;0.00
84428;PMS7003;74637;52.170;21.034;2024-01-27T01:36:00;0.00;0.00;0.00
84428;PMS7003;74637;52.170;21.034;2024-01-27T01:38:27;5.00;2.00;1.00
84428;PMS7003;74637;52.170;21.034;2024-01-27T01:40:54;1.00;0.50;0.00
84428;PMS7003;74637;52.170;21.034;2024-01-27T01:43:20;2.00;1.00;0.00
84428;PMS7003;74637;52.170;21.034;2024-01-27T01:45:47;5.00;1.00;0.00
84428;PMS7003;74637;52.170;21.034;2024-01-27T01:48:14;8.33;0.00;0.00
84428;PMS7003;74637;52.170;21.034;2024-01-27T01:50:40;3.00;1.00;0.00
84428;PMS7003;74637;52.170;21.034;2024-01-27T01:53:07;1.00;1.00;0.00
84428;PMS7003;74637;52.170;21.034;2024-01-27T01:55:34;9.00;1.00;0.00
84428;PMS7003;74637;52.170;21.034;2024-01-27T01:58:01;3.00;1.00;1.00
84428;PMS7003;74637;52.170;21.034;2024-01-27T02:00:27;1.00;1.00;1.00
84428;PMS7003;74637;52.170;21.034;2024-01-27T02:02:54;2.00;1.00;1.00
84428;PMS7003;74637;52.170;21.034;2024-01-27T02:05:21;6.00;1.00;1.00
84428;PMS7003;74637;52.170;21.034;2024-01-27T02:07:47;4.50;1.00;0.00
84428;PMS7003;74637;52.170;21.034;2024-01-27T02:10:14;7.00;0.00;0.00
84428;PMS7003;74637;52.170;21.034;2024-01-27T02:12:42;0.00;0.00;0.00
84428;PMS7003;74637;52.170;21.034;2024-01-27T02:15:10;0.00;0.00;0.00
84428;PMS7003;74637;52.170;21.034;2024-01-27T02:17:40;1.75;1.00;0.25
84428;PMS7003;74637;52.170;21.034;2024-01-27T02:20:08;1.00;0.50;0.00
84428;PMS7003;74637;52.170;21.034;2024-01-27T02:22:35;1.33;0.33;0.00
84428;PMS7003;74637;52.170;21.034;2024-01-27T02:25:02;2.00;0.00;0.00
84428;PMS7003;74637;52.170;21.034;2024-01-27T02:27:29;2.67;1.00;0.00
84428;PMS7003;74637;52.170;21.034;2024-01-27T02:29:58;0.00;0.00;0.00
84428;PMS7003;74637;52.170;21.034;2024-01-27T02:32:25;0.00;0.00;0.00
84428;PMS7003;74637;52.170;21.034;2024-01-27T02:34:51;5.50;0.00;0.00
84428;PMS7003;74637;52.170;21.034;2024-01-27T02:37:18;0.00;0.00;0.00
84428;PMS7003;74637;52.170;21.034;2024-01-27T02:39:45;1.33;0.00;0.00
84428;PMS7003;74637;52.170;21.034;2024-01-27T02:42:12;3.00;0.00;0.00
84428;PMS7003;74637;52.170;21.034;2024-01-27T02:44:39;3.00;2.00;1.00
84428;PMS7003;74637;52.170;21.034;2024-01-27T02:47:05;2.00;0.00;0.00
84428;PMS7003;74637;52.170;21.034;2024-01-27T02:49:32;6.00;1.00;0.50
84428;PMS7003;74637;52.170;21.034;2024-01-27T02:51:58;5.00;2.00;1.00
84428;PMS7003;74637;52.170;21.034;2024-01-27T02:54:25;1.00;1.00;1.00
84428;PMS7003;74637;52.170;21.034;2024-01-27T02:56:52;0.00;0.00;0.00
84428;PMS7003;74637;52.170;21.034;2024-01-27T02:59:18;0.67;0.67;0.00
84428;PMS7003;74637;52.170;21.034;2024-01-27T03:01:45;2.00;0.00;0.00
84428;PMS7003;74637;52.170;21.034;2024-01-27T03:04:11;2.50;1.00;0.50
84428;PMS7003;74637;52.170;21.034;2024-01-27T03:06:38;4.50;1.00;1.00
84428;PMS7003;74637;52.170;21.034;2024-01-27T03:09:05;6.33;1.00;1.00
84428;PMS7003;74637;52.170;21.034;2024-01-27T03:11:31;2.25;1.00;1.00
84428;PMS7003;74637;52.170;21.034;2024-01-27T03:13:58;2.00;0.00;0.00
84428;PMS7003;74637;52.170;21.034;2024-01-27T03:16:25;3.00;0.00;0.00
84428;PMS7003;74637;52.170;21.034;2024-01-27T03:18:52;2.00;1.00;0.50
84428;PMS7003;74637;52.170;21.034;2024-01-27T03:21:18;4.33;1.00;0.33
84428;PMS7003;74637;52.170;21.034;2024-01-27T03:23:45;6.00;1.00;0.67
84428;PMS7003;74637;52.170;21.034;2024-01-27T03:26:11;3.67;0.00;0.00
84428;PMS7003;74637;52.170;21.034;2024-01-27T03:28:38;0.00;0.00;0.00
84428;PMS7003;74637;52.170;21.034;2024-01-27T03:31:05;2.00;0.00;0.00
84428;PMS7003;74637;52.170;21.034;2024-01-27T03:33:31;1.00;0.67;0.00
84428;PMS7003;74637;52.170;21.034;2024-01-27T03:35:58;3.00;1.00;1.00
84428;PMS7003;74637;52.170;21.034;2024-01-27T03:38:26;2.00;1.00;1.00
84428;PMS7003;74637;52.170;21.034;2024-01-27T03:40:52;3.00;0.00;0.00
84428;PMS7003;74637;52.170;21.034;2024-01-27T03:43:19;2.00;0.50;0.00
84428;PMS7003;74637;52.170;21.034;2024-01-27T03:45:46;2.00;1.00;0.00
84428;PMS7003;74637;52.170;21.034;2024-01-27T03:48:12;4.33;1.00;0.00
84428;PMS7003;74637;52.170;21.034;2024-01-27T03:50:39;2.00;1.00;0.00
84428;PMS7003;74637;52.170;21.034;2024-01-27T03:53:05;5.33;1.00;0.33
84428;PMS7003;74637;52.170;21.034;2024-01-27T03:55:32;5.00;2.00;1.00
84428;PMS7003;74637;52.170;21.034;2024-01-27T03:58:00;2.00;1.00;0.00
84428;PMS7003;74637;52.170;21.034;2024-01-27T04:00:29;3.50;1.00;0.50
84428;PMS7003;74637;52.170;21.034;2024-01-27T04:02:59;5.50;1.00;0.00
84428;PMS7003;74637;52.170;21.034;2024-01-27T04:05:26;1.33;1.00;1.00
84428;PMS7003;74637;52.170;21.034;2024-01-27T04:07:54;1.00;1.00;1.00
84428;PMS7003;74637;52.170;21.034;2024-01-27T04:10:21;0.00;0.00;0.00
84428;PMS7003;74637;52.170;21.034;2024-01-27T04:12:49;5.50;2.00;1.00
84428;PMS7003;74637;52.170;21.034;2024-01-27T04:15:15;2.33;0.67;0.00
84428;PMS7003;74637;52.170;21.034;2024-01-27T04:17:42;1.00;1.00;0.00
84428;PMS7003;74637;52.170;21.034;2024-01-27T04:20:09;1.50;0.00;0.00
84428;PMS7003;74637;52.170;21.034;2024-01-27T04:22:36;2.00;1.00;0.00
84428;PMS7003;74637;52.170;21.034;2024-01-27T04:25:02;2.00;1.00;0.67
84428;PMS7003;74637;52.170;21.034;2024-01-27T04:27:30;6.00;1.00;0.00
84428;PMS7003;74637;52.170;21.034;2024-01-27T04:29:56;1.25;1.00;0.75
84428;PMS7003;74637;52.170;21.034;2024-01-27T04:32:23;5.50;1.00;0.00
84428;PMS7003;74637;52.170;21.034;2024-01-27T04:34:49;3.00;1.33;1.00
84428;PMS7003;74637;52.170;21.034;2024-01-27T04:37:16;7.00;1.00;1.00
84428;PMS7003;74637;52.170;21.034;2024-01-27T04:39:42;2.00;1.00;0.00
84428;PMS7003;74637;52.170;21.034;2024-01-27T04:42:09;2.00;1.50;0.50
84428;PMS7003;74637;52.170;21.034;2024-01-27T04:44:39;1.00;1.00;1.00
84428;PMS7003;74637;52.170;21.034;2024-01-27T04:47:06;0.00;0.00;0.00
84428;PMS7003;74637;52.170;21.034;2024-01-27T04:49:33;2.67;1.00;0.67
84428;PMS7003;74637;52.170;21.034;2024-01-27T04:52:00;6.00;1.00;1.00
84428;PMS7003;74637;52.170;21.034;2024-01-27T04:54:26;5.00;2.00;1.00
84428;PMS7003;74637;52.170;21.034;2024-01-27T04:56:53;3.00;2.00;1.00
84428;PMS7003;74637;52.170;21.034;2024-01-27T04:59:20;3.00;3.00;1.00
84428;PMS7003;74637;52.170;21.034;2024-01-27T05:01:46;2.33;1.00;0.33
84428;PMS7003;74637;52.170;21.034;2024-01-27T05:04:13;1.00;1.00;1.00
84428;PMS7003;74637;52.170;21.034;2024-01-27T05:06:43;2.00;1.00;1.00
84428;PMS7003;74637;52.170;21.034;2024-01-27T05:09:11;2.50;1.25;1.00
84428;PMS7003;74637;52.170;21.034;2024-01-27T05:11:38;6.00;1.00;0.00
84428;PMS7003;74637;52.170;21.034;2024-01-27T05:14:04;1.00;1.00;0.00
84428;PMS7003;74637;52.170;21.034;2024-01-27T05:16:31;2.00;1.25;1.00
84428;PMS7003;74637;52.170;21.034;2024-01-27T05:18:59;3.33;1.00;0.33
84428;PMS7003;74637;52.170;21.034;2024-01-27T05:21:26;2.00;0.00;0.00
84428;PMS7003;74637;52.170;21.034;2024-01-27T05:23:53;2.75;1.00;1.00
84428;PMS7003;74637;52.170;21.034;2024-01-27T05:26:19;5.00;1.00;1.00
84428;PMS7003;74637;52.170;21.034;2024-01-27T05:28:46;5.00;1.00;1.00
84428;PMS7003;74637;52.170;21.034;2024-01-27T05:31:12;1.00;1.00;0.00
84428;PMS7003;74637;52.170;21.034;2024-01-27T05:33:39;5.00;1.50;1.00
84428;PMS7003;74637;52.170;21.034;2024-01-27T05:36:05;3.33;1.00;0.67
84428;PMS7003;74637;52.170;21.034;2024-01-27T05:38:32;5.00;2.00;1.00
84428;PMS7003;74637;52.170;21.034;2024-01-27T05:41:02;5.00;1.33;0.67
84428;PMS7003;74637;52.170;21.034;2024-01-27T05:43:29;1.00;1.00;0.33
84428;PMS7003;74637;52.170;21.034;2024-01-27T05:45:56;5.00;1.00;0.50
84428;PMS7003;74637;52.170;21.034;2024-01-27T05:48:23;2.67;2.00;1.00
84428;PMS7003;74637;52.170;21.034;2024-01-27T05:50:59;2.00;2.00;1.00
84428;PMS7003;74637;52.170;21.034;2024-01-27T05:53:26;3.00;1.00;1.00
84428;PMS7003;74637;52.170;21.034;2024-01-27T05:55:53;8.00;2.00;1.00
84428;PMS7003;74637;52.170;21.034;2024-01-27T05:58:20;3.00;1.00;1.00
84428;PMS7003;74637;52.170;21.034;2024-01-27T06:00:47;3.00;1.00;0.00
84428;PMS7003;74637;52.170;21.034;2024-01-27T06:03:15;3.67;1.00;0.33
84428;PMS7003;74637;52.170;21.034;2024-01-27T06:05:43;2.67;1.33;1.00
84428;PMS7003;74637;52.170;21.034;2024-01-27T06:08:10;9.50;1.00;1.00
84428;PMS7003;74637;52.170;21.034;2024-01-27T06:10:37;3.00;2.00;1.00
84428;PMS7003;74637;52.170;21.034;2024-01-27T06:13:04;2.00;0.00;0.00
84428;PMS7003;74637;52.170;21.034;2024-01-27T06:15:31;2.00;1.00;0.00
84428;PMS7003;74637;52.170;21.034;2024-01-27T06:17:58;0.67;0.00;0.00
84428;PMS7003;74637;52.170;21.034;2024-01-27T06:20:24;3.00;1.00;0.00
84428;PMS7003;74637;52.170;21.034;2024-01-27T06:22:51;2.00;1.00;0.50
84428;PMS7003;74637;52.170;21.034;2024-01-27T06:25:21;5.00;1.00;0.75
84428;PMS7003;74637;52.170;21.034;2024-01-27T06:27:47;4.33;1.00;0.00
84428;PMS7003;74637;52.170;21.034;2024-01-27T06:30:15;7.50;1.00;1.00
84428;PMS7003;74637;52.170;21.034;2024-01-27T06:32:42;10.00;2.00;1.00
84428;PMS7003;74637;52.170;21.034;2024-01-27T06:35:08;3.50;1.00;0.00
84428;PMS7003;74637;52.170;21.034;2024-01-27T06:37:35;3.50;1.00;0.00
84428;PMS7003;74637;52.170;21.034;2024-01-27T06:40:02;3.00;1.67;1.00
84428;PMS7003;74637;52.170;21.034;2024-01-27T06:42:29;5.00;0.00;0.00
84428;PMS7003;74637;52.170;21.034;2024-01-27T06:44:56;11.00;2.00;2.00
84428;PMS7003;74637;52.170;21.034;2024-01-27T06:47:22;2.00;1.00;0.00
84428;PMS7003;74637;52.170;21.034;2024-01-27T06:49:49;4.00;1.67;1.00
84428;PMS7003;74637;52.170;21.034;2024-01-27T06:52:15;2.00;1.00;0.00
84428;PMS7003;74637;52.170;21.034;2024-01-27T06:54:42;9.00;2.00;1.00
84428;PMS7003;74637;52.170;21.034;2024-01-27T06:59:47;2.00;1.50;1.00
84428;PMS7003;74637;52.170;21.034;2024-01-27T07:02:24;1.00;1.00;1.00
84428;PMS7003;74637;52.170;21.034;2024-01-27T07:04:55;3.00;2.00;1.00
84428;PMS7003;74637;52.170;21.034;2024-01-27T07:07:22;2.00;2.00;1.50
84428;PMS7003;74637;52.170;21.034;2024-01-27T07:09:52;5.50;2.00;1.00
84428;PMS7003;74637;52.170;21.034;2024-01-27T07:12:20;8.00;2.00;1.00
84428;PMS7003;74637;52.170;21.034;2024-01-27T07:14:47;5.00;1.00;1.00
84428;PMS7003;74637;52.170;21.034;2024-01-27T07:17:13;0.00;0.00;0.00
84428;PMS7003;74637;52.170;21.034;2024-01-27T07:19:40;3.33;3.00;1.33
84428;PMS7003;74637;52.170;21.034;2024-01-27T07:22:06;9.50;3.00;1.00
84428;PMS7003;74637;52.170;21.034;2024-01-27T07:24:33;5.00;2.00;1.00
84428;PMS7003;74637;52.170;21.034;2024-01-27T07:26:59;4.00;2.00;1.00
84428;PMS7003;74637;52.170;21.034;2024-01-27T07:29:27;7.33;5.33;4.00
84428;PMS7003;74637;52.170;21.034;2024-01-27T07:31:54;2.33;1.67;1.00
84428;PMS7003;74637;52.170;21.034;2024-01-27T07:34:20;2.00;2.00;1.00
84428;PMS7003;74637;52.170;21.034;2024-01-27T07:36:47;2.00;2.00;1.00
84428;PMS7003;74637;52.170;21.034;2024-01-27T07:39:15;11.67;5.00;4.00
84428;PMS7003;74637;52.170;21.034;2024-01-27T07:41:42;12.00;2.00;2.00
84428;PMS7003;74637;52.170;21.034;2024-01-27T07:44:09;5.00;4.00;2.00
84428;PMS7003;74637;52.170;21.034;2024-01-27T07:46:37;5.00;3.50;1.00
84428;PMS7003;74637;52.170;21.034;2024-01-27T07:49:05;4.50;4.50;2.00
84428;PMS7003;74637;52.170;21.034;2024-01-27T07:51:32;7.00;5.00;2.00
84428;PMS7003;74637;52.170;21.034;2024-01-27T07:53:59;4.00;4.00;2.00
84428;PMS7003;74637;52.170;21.034;2024-01-27T07:56:27;3.00;1.00;0.50
84428;PMS7003;74637;52.170;21.034;2024-01-27T07:58:53;2.00;2.00;2.00
84428;PMS7003;74637;52.170;21.034;2024-01-27T08:01:20;5.33;2.67;1.00
84428;PMS7003;74637;52.170;21.034;2024-01-27T08:03:46;2.00;2.00;1.00
84428;PMS7003;74637;52.170;21.034;2024-01-27T08:06:17;9.00;5.00;1.00
84428;PMS7003;74637;52.170;21.034;2024-01-27T08:08:48;7.00;4.33;2.00
84428;PMS7003;74637;52.170;21.034;2024-01-27T08:11:15;8.00;5.00;4.00
84428;PMS7003;74637;52.170;21.034;2024-01-27T08:13:43;3.33;3.33;2.00
84428;PMS7003;74637;52.170;21.034;2024-01-27T08:16:10;9.00;2.00;1.00
84428;PMS7003;74637;52.170;21.034;2024-01-27T08:18:39;6.50;3.50;2.00
84428;PMS7003;74637;52.170;21.034;2024-01-27T08:21:08;5.00;4.00;2.00
84428;PMS7003;74637;52.170;21.034;2024-01-27T08:23:34;2.00;2.00;2.00
84428;PMS7003;74637;52.170;21.034;2024-01-27T08:26:01;7.50;4.00;2.00
84428;PMS7003;74637;52.170;21.034;2024-01-27T08:28:31;6.00;2.00;1.33
84428;PMS7003;74637;52.170;21.034;2024-01-27T08:30:58;4.50;4.50;1.50
84428;PMS7003;74637;52.170;21.034;2024-01-27T08:33:26;3.00;2.00;1.67
84428;PMS7003;74637;52.170;21.034;2024-01-27T08:35:52;11.00;4.50;2.00
84428;PMS7003;74637;52.170;21.034;2024-01-27T08:38:19;6.00;4.50;4.00
84428;PMS7003;74637;52.170;21.034;2024-01-27T08:40:46;4.00;4.00;2.00
84428;PMS7003;74637;52.170;21.034;2024-01-27T08:43:12;10.00;4.00;4.00
84428;PMS7003;74637;52.170;21.034;2024-01-27T08:45:39;15.00;6.00;4.00
84428;PMS7003;74637;52.170;21.034;2024-01-27T08:48:06;6.33;5.00;2.00
84428;PMS7003;74637;52.170;21.034;2024-01-27T08:50:33;6.00;3.50;2.00
84428;PMS7003;74637;52.170;21.034;2024-01-27T08:52:59;6.00;4.00;2.00
84428;PMS7003;74637;52.170;21.034;2024-01-27T08:55:26;9.00;5.00;4.00
84428;PMS7003;74637;52.170;21.034;2024-01-27T08:57:53;5.00;4.00;2.00
84428;PMS7003;74637;52.170;21.034;2024-01-27T09:00:19;9.00;8.00;5.00
84428;PMS7003;74637;52.170;21.034;2024-01-27T09:02:46;7.00;5.00;1.50
84428;PMS7003;74637;52.170;21.034;2024-01-27T09:05:13;4.00;0.00;0.00
84428;PMS7003;74637;52.170;21.034;2024-01-27T09:07:40;8.67;4.67;3.33
84428;PMS7003;74637;52.170;21.034;2024-01-27T09:10:07;3.00;2.00;1.00
84428;PMS7003;74637;52.170;21.034;2024-01-27T09:12:34;4.50;4.00;2.00
84428;PMS7003;74637;52.170;21.034;2024-01-27T09:15:00;4.50;4.00;2.00
84428;PMS7003;74637;52.170;21.034;2024-01-27T09:17:27;5.00;4.00;2.00
84428;PMS7003;74637;52.170;21.034;2024-01-27T09:19:54;5.50;5.50;2.00
84428;PMS7003;74637;52.170;21.034;2024-01-27T09:22:20;7.00;1.00;1.00
84428;PMS7003;74637;52.170;21.034;2024-01-27T09:24:47;8.00;6.00;4.00
84428;PMS7003;74637;52.170;21.034;2024-01-27T09:27:13;5.00;4.50;2.00
84428;PMS7003;74637;52.170;21.034;2024-01-27T09:29:40;7.00;4.00;2.00
84428;PMS7003;74637;52.170;21.034;2024-01-27T09:32:06;10.00;6.00;4.00
84428;PMS7003;74637;52.170;21.034;2024-01-27T09:34:33;7.00;4.00;2.00
84428;PMS7003;74637;52.170;21.034;2024-01-27T09:37:00;4.00;4.00;2.00
84428;PMS7003;74637;52.170;21.034;2024-01-27T09:39:27;13.67;5.33;3.33
84428;PMS7003;74637;52.170;21.034;2024-01-27T09:41:54;5.00;5.00;2.00
84428;PMS7003;74637;52.170;21.034;2024-01-27T09:44:22;6.00;5.00;2.00
84428;PMS7003;74637;52.170;21.034;2024-01-27T09:46:51;5.33;5.00;2.00
84428;PMS7003;74637;52.170;21.034;2024-01-27T09:49:18;3.00;2.00;2.00
84428;PMS7003;74637;52.170;21.034;2024-01-27T09:51:44;5.50;2.00;2.00
84428;PMS7003;74637;52.170;21.034;2024-01-27T09:54:11;14.00;4.00;2.00
84428;PMS7003;74637;52.170;21.034;2024-01-27T09:56:37;2.00;2.00;2.00
84428;PMS7003;74637;52.170;21.034;2024-01-27T09:59:05;8.00;2.00;1.50
84428;PMS7003;74637;52.170;21.034;2024-01-27T10:01:32;5.00;2.00;2.00
84428;PMS7003;74637;52.170;21.034;2024-01-27T10:04:00;5.00;4.00;1.00
84428;PMS7003;74637;52.170;21.034;2024-01-27T10:06:27;4.00;4.00;2.00
84428;PMS7003;74637;52.170;21.034;2024-01-27T10:08:55;2.00;2.00;1.00
84428;PMS7003;74637;52.170;21.034;2024-01-27T10:11:21;6.00;3.33;2.00
84428;PMS7003;74637;52.170;21.034;2024-01-27T10:13:55;3.75;1.75;1.50
84428;PMS7003;74637;52.170;21.034;2024-01-27T10:16:22;4.00;4.00;2.00
84428;PMS7003;74637;52.170;21.034;2024-01-27T10:18:58;4.00;2.00;1.00
84428;PMS7003;74637;52.170;21.034;2024-01-27T10:21:27;4.67;2.67;2.00
84428;PMS7003;74637;52.170;21.034;2024-01-27T10:23:54;7.33;2.00;1.33
84428;PMS7003;74637;52.170;21.034;2024-01-27T10:26:21;4.00;4.00;2.00
84428;PMS7003;74637;52.170;21.034;2024-01-27T10:28:56;4.50;2.00;2.00
84428;PMS7003;74637;52.170;21.034;2024-01-27T10:31:30;5.00;2.00;1.00
84428;PMS7003;74637;52.170;21.034;2024-01-27T10:33:57;6.00;2.00;1.00
84428;PMS7003;74637;52.170;21.034;2024-01-27T10:36:24;5.00;4.50;4.00
84428;PMS7003;74637;52.170;21.034;2024-01-27T10:38:52;4.00;4.00;1.50
84428;PMS7003;74637;52.170;21.034;2024-01-27T10:41:21;4.00;2.00;1.00
84428;PMS7003;74637;52.170;21.034;2024-01-27T10:43:50;4.25;3.00;1.25
84428;PMS7003;74637;52.170;21.034;2024-01-27T10:46:19;4.25;2.00;1.75
84428;PMS7003;74637;52.170;21.034;2024-01-27T10:48:52;2.00;2.00;2.00
84428;PMS7003;74637;52.170;21.034;2024-01-27T10:51:31;2.00;2.00;1.00
84428;PMS7003;74637;52.170;21.034;2024-01-27T10:54:03;4.25;2.00;2.00
84428;PMS7003;74637;52.170;21.034;2024-01-27T10:56:33;4.00;4.00;2.00
84428;PMS7003;74637;52.170;21.034;2024-01-27T10:59:00;4.50;4.00;1.50
84428;PMS7003;74637;52.170;21.034;2024-01-27T11:01:29;6.00;2.00;1.00
84428;PMS7003;74637;52.170;21.034;2024-01-27T11:03:58;3.33;2.00;1.00
84428;PMS7003;74637;52.170;21.034;2024-01-27T11:06:25;7.33;2.00;2.00
84428;PMS7003;74637;52.170;21.034;2024-01-27T11:08:54;4.00;2.00;2.00
84428;PMS7003;74637;52.170;21.034;2024-01-27T11:11:22;4.67;2.33;1.33
84428;PMS7003;74637;52.170;21.034;2024-01-27T11:13:49;3.67;3.67;2.33
84428;PMS7003;74637;52.170;21.034;2024-01-27T11:16:17;2.00;2.00;1.00
84428;PMS7003;74637;52.170;21.034;2024-01-27T11:18:45;5.00;3.00;2.00
84428;PMS7003;74637;52.170;21.034;2024-01-27T11:21:13;2.00;2.00;1.00
84428;PMS7003;74637;52.170;21.034;2024-01-27T11:23:41;2.00;2.00;2.00
84428;PMS7003;74637;52.170;21.034;2024-01-27T11:26:09;0.00;0.00;0.00
84428;PMS7003;74637;52.170;21.034;2024-01-27T11:28:36;3.25;1.00;0.75
84428;PMS7003;74637;52.170;21.034;2024-01-27T11:31:04;1.00;0.50;0.50
84428;PMS7003;74637;52.170;21.034;2024-01-27T11:33:31;2.50;2.00;1.00
84428;PMS7003;74637;52.170;21.034;2024-01-27T11:36:04;2.00;1.33;1.00
84428;PMS7003;74637;52.170;21.034;2024-01-27T11:38:32;3.00;2.00;1.50
84428;PMS7003;74637;52.170;21.034;2024-01-27T11:40:59;1.67;1.67;1.67
84428;PMS7003;74637;52.170;21.034;2024-01-27T11:43:26;2.00;2.00;1.00
84428;PMS7003;74637;52.170;21.034;2024-01-27T11:45:59;1.00;1.00;1.00
84428;PMS7003;74637;52.170;21.034;2024-01-27T11:48:26;2.00;2.00;1.00
84428;PMS7003;74637;52.170;21.034;2024-01-27T11:51:02;4.00;2.00;1.00
84428;PMS7003;74637;52.170;21.034;2024-01-27T11:53:30;4.00;2.00;1.00
84428;PMS7003;74637;52.170;21.034;2024-01-27T11:55:56;3.00;2.00;1.00
84428;PMS7003;74637;52.170;21.034;2024-01-27T11:58:23;3.00;2.00;2.00
84428;PMS7003;74637;52.170;21.034;2024-01-27T12:00:50;2.00;2.00;1.00
84428;PMS7003;74637;52.170;21.034;2024-01-27T12:03:16;5.00;1.00;1.00
84428;PMS7003;74637;52.170;21.034;2024-01-27T12:05:43;1.00;1.00;1.00
84428;PMS7003;74637;52.170;21.034;2024-01-27T12:08:10;2.33;1.00;1.00
84428;PMS7003;74637;52.170;21.034;2024-01-27T12:10:37;5.00;3.00;2.00
84428;PMS7003;74637;52.170;21.034;2024-01-27T12:13:03;5.67;1.00;1.00
84428;PMS7003;74637;52.170;21.034;2024-01-27T12:15:30;5.00;2.00;2.00
84428;PMS7003;74637;52.170;21.034;2024-01-27T12:17:57;6.00;2.00;2.00
84428;PMS7003;74637;52.170;21.034;2024-01-27T12:20:23;1.00;1.00;1.00
84428;PMS7003;74637;52.170;21.034;2024-01-27T12:22:50;3.00;3.00;2.00
84428;PMS7003;74637;52.170;21.034;2024-01-27T12:25:27;2.00;2.00;1.67
84428;PMS7003;74637;52.170;21.034;2024-01-27T12:27:54;2.00;2.00;1.00
84428;PMS7003;74637;52.170;21.034;2024-01-27T12:30:21;7.00;1.00;1.00
84428;PMS7003;74637;52.170;21.034;2024-01-27T12:32:47;4.33;4.00;2.00
84428;PMS7003;74637;52.170;21.034;2024-01-27T12:35:14;6.00;3.00;2.00
84428;PMS7003;74637;52.170;21.034;2024-01-27T12:37:42;2.00;2.00;1.50
84428;PMS7003;74637;52.170;21.034;2024-01-27T12:42:46;6.00;3.00;2.00
84428;PMS7003;74637;52.170;21.034;2024-01-27T12:45:16;9.00;5.00;4.00
84428;PMS7003;74637;52.170;21.034;2024-01-27T12:47:42;4.00;4.00;4.00
84428;PMS7003;74637;52.170;21.034;2024-01-27T12:50:09;3.00;3.00;2.00
84428;PMS7003;74637;52.170;21.034;2024-01-27T12:52:36;6.00;4.00;2.00
84428;PMS7003;74637;52.170;21.034;2024-01-27T12:55:04;5.33;3.33;3.33
84428;PMS7003;74637;52.170;21.034;2024-01-27T12:57:31;1.67;1.67;0.00
84428;PMS7003;74637;52.170;21.034;2024-01-27T12:59:58;7.00;4.00;4.00
84428;PMS7003;74637;52.170;21.034;2024-01-27T13:02:24;3.33;2.00;1.00
84428;PMS7003;74637;52.170;21.034;2024-01-27T13:04:51;6.00;2.00;2.00
84428;PMS7003;74637;52.170;21.034;2024-01-27T13:09:44;5.00;3.50;3.00
84428;PMS7003;74637;52.170;21.034;2024-01-27T13:12:11;2.50;2.50;1.50
84428;PMS7003;74637;52.170;21.034;2024-01-27T13:14:38;5.00;3.00;3.00
84428;PMS7003;74637;52.170;21.034;2024-01-27T13:17:04;6.00;4.00;2.00
84428;PMS7003;74637;52.170;21.034;2024-01-27T13:19:31;5.67;4.00;2.00
84428;PMS7003;74637;52.170;21.034;2024-01-27T13:21:57;8.50;6.00;3.50
84428;PMS7003;74637;52.170;21.034;2024-01-27T13:24:24;2.75;1.00;0.00
84428;PMS7003;74637;52.170;21.034;2024-01-27T13:26:52;6.00;4.50;3.00
84428;PMS7003;74637;52.170;21.034;2024-01-27T13:29:18;3.00;3.00;2.00
84428;PMS7003;74637;52.170;21.034;2024-01-27T13:31:45;3.00;3.00;2.00
84428;PMS7003;74637;52.170;21.034;2024-01-27T13:34:13;6.00;3.00;2.00
84428;PMS7003;74637;52.170;21.034;2024-01-27T13:36:40;2.00;2.00;1.00
84428;PMS7003;74637;52.170;21.034;2024-01-27T13:39:07;11.50;3.50;3.50
84428;PMS7003;74637;52.170;21.034;2024-01-27T13:41:33;4.33;4.33;2.00
84428;PMS7003;74637;52.170;21.034;2024-01-27T13:44:00;2.00;2.00;2.00
84428;PMS7003;74637;52.170;21.034;2024-01-27T13:46:26;3.00;3.00;2.00
84428;PMS7003;74637;52.170;21.034;2024-01-27T13:48:53;4.33;4.33;3.33
84428;PMS7003;74637;52.170;21.034;2024-01-27T13:51:20;5.00;3.33;1.33
84428;PMS7003;74637;52.170;21.034;2024-01-27T13:53:47;3.00;2.00;1.00
84428;PMS7003;74637;52.170;21.034;2024-01-27T13:56:13;3.00;3.00;2.00
84428;PMS7003;74637;52.170;21.034;2024-01-27T13:58:40;2.67;2.67;2.33
84428;PMS7003;74637;52.170;21.034;2024-01-27T14:01:07;6.00;3.00;2.00
84428;PMS7003;74637;52.170;21.034;2024-01-27T14:03:34;1.67;1.67;0.33
84428;PMS7003;74637;52.170;21.034;2024-01-27T14:06:01;2.00;2.00;1.33
84428;PMS7003;74637;52.170;21.034;2024-01-27T14:08:27;5.00;3.00;1.00
84428;PMS7003;74637;52.170;21.034;2024-01-27T14:10:54;3.67;3.67;3.00
84428;PMS7003;74637;52.170;21.034;2024-01-27T14:13:20;5.00;3.25;2.50
84428;PMS7003;74637;52.170;21.034;2024-01-27T14:15:48;2.00;2.00;1.00